createdAt,value
2023-03-19T00:00:42.959Z,100282.50
2023-03-19T00:03:09.194Z,100282.13
2023-03-19T00:05:35.647Z,100284.97
2023-03-19T00:08:01.925Z,100281.03
2023-03-19T00:10:28.130Z,100277.84
2023-03-19T00:12:54.381Z,100287.09
2023-03-19T00:15:20.610Z,100281.31
2023-03-19T00:17:46.813Z,100284.69
2023-03-19T00:20:13.087Z,100289.25
2023-03-19T00:22:39.316Z,100280.28
2023-03-19T00:25:05.759Z,100287.50
2023-03-19T00:27:31.981Z,100283.91
2023-03-19T00:29:58.208Z,100255.50
2023-03-19T00:32:24.429Z,100265.22
2023-03-19T00:34:50.644Z,100288.59
2023-03-19T00:37:16.848Z,100272.78
2023-03-19T00:39:43.071Z,100248.91
2023-03-19T00:42:09.334Z,100288.78
2023-03-19T00:44:35.552Z,100301.44
2023-03-19T00:47:01.751Z,100292.63
2023-03-19T00:49:27.964Z,100300.91
2023-03-19T00:51:54.180Z,100292.69
2023-03-19T00:54:20.402Z,100281.16
2023-03-19T00:56:46.605Z,100254.06
2023-03-19T00:59:12.835Z,100275.38
2023-03-19T01:01:39.079Z,100286.66
2023-03-19T01:04:05.373Z,100285.66
2023-03-19T01:06:31.676Z,100283.38
2023-03-19T01:08:57.875Z,100306.63
2023-03-19T01:11:24.092Z,100325.91
2023-03-19T01:13:50.293Z,100334.84
2023-03-19T01:16:16.497Z,100319.94
2023-03-19T01:18:42.703Z,100314.81
2023-03-19T01:21:08.929Z,100298.44
2023-03-19T01:23:35.128Z,100329.69
2023-03-19T01:26:01.332Z,100335.31
2023-03-19T01:28:27.541Z,100349.81
2023-03-19T01:30:53.805Z,100342.41
2023-03-19T01:33:20.028Z,100339.16
2023-03-19T01:35:46.646Z,100321.00
2023-03-19T01:38:12.850Z,100294.66
2023-03-19T01:40:43.599Z,100305.59
2023-03-19T01:43:14.267Z,100316.69
2023-03-19T01:45:41.040Z,100303.00
2023-03-19T01:48:07.236Z,100299.28
2023-03-19T01:50:40.392Z,100306.47
2023-03-19T01:53:06.623Z,100290.84
2023-03-19T01:55:32.840Z,100309.09
2023-03-19T01:57:59.055Z,100329.69
2023-03-19T02:00:25.281Z,100337.72
2023-03-19T02:02:52.803Z,100315.50
2023-03-19T02:05:19.034Z,100298.22
2023-03-19T02:07:45.233Z,100334.72
2023-03-19T02:10:12.112Z,100351.78
2023-03-19T02:12:38.379Z,100361.78
2023-03-19T02:15:05.039Z,100362.88
2023-03-19T02:17:31.245Z,100354.00
2023-03-19T02:20:13.455Z,100340.41
2023-03-19T02:22:41.227Z,100356.88
2023-03-19T02:25:19.225Z,100352.06
2023-03-19T02:27:45.433Z,100352.78
2023-03-19T02:30:28.245Z,100342.88
2023-03-19T02:32:54.507Z,100328.56
2023-03-19T02:35:20.723Z,100331.16
2023-03-19T02:37:46.942Z,100315.66
2023-03-19T02:40:14.793Z,100306.81
2023-03-19T02:42:41.024Z,100281.06
2023-03-19T02:45:07.411Z,100272.66
2023-03-19T02:47:33.620Z,100223.34
2023-03-19T02:49:59.812Z,100186.81
2023-03-19T02:52:26.098Z,100163.03
2023-03-19T02:54:52.301Z,100139.25
2023-03-19T02:57:18.513Z,100103.03
2023-03-19T02:59:44.723Z,100090.88
2023-03-19T03:02:11.035Z,100095.03
2023-03-19T03:04:37.313Z,100077.78
2023-03-19T03:07:04.028Z,100050.06
2023-03-19T03:09:30.249Z,100014.31
2023-03-19T03:11:56.481Z,99971.81
2023-03-19T03:14:22.739Z,99956.78
2023-03-19T03:16:48.965Z,99936.97
2023-03-19T03:19:15.171Z,99901.56
2023-03-19T03:21:41.384Z,99866.03
2023-03-19T03:24:07.703Z,99829.47
2023-03-19T03:26:33.917Z,99804.81
2023-03-19T03:29:00.131Z,99796.88
2023-03-19T03:31:26.339Z,99747.69
2023-03-19T03:33:52.575Z,99674.34
2023-03-19T03:36:18.792Z,99619.34
2023-03-19T03:38:45.332Z,99580.19
2023-03-19T03:41:11.554Z,99526.25
2023-03-19T03:43:37.750Z,99489.41
2023-03-19T03:46:03.988Z,99444.03
2023-03-19T03:48:30.234Z,99419.66
2023-03-19T03:50:56.473Z,99394.75
2023-03-19T03:53:22.683Z,99377.19
2023-03-19T03:55:49.007Z,99353.59
2023-03-19T03:58:15.228Z,99339.59
2023-03-19T04:00:41.426Z,99320.94
2023-03-19T04:03:07.673Z,99318.06
2023-03-19T04:05:33.896Z,99295.00
2023-03-19T04:08:00.127Z,99305.38
2023-03-19T04:10:26.329Z,99342.19
2023-03-19T04:12:52.546Z,99380.94
2023-03-19T04:15:18.744Z,99378.56
2023-03-19T04:17:44.956Z,99408.91
2023-03-19T04:20:11.319Z,99467.34
2023-03-19T04:22:37.555Z,99488.09
2023-03-19T04:25:06.026Z,99518.91
2023-03-19T04:27:32.235Z,99521.25
2023-03-19T04:29:58.458Z,99533.22
2023-03-19T04:32:24.670Z,99523.13
2023-03-19T04:34:50.877Z,99521.81
2023-03-19T04:37:17.089Z,99523.53
2023-03-19T04:39:43.302Z,99509.22
2023-03-19T04:42:09.681Z,99506.28
2023-03-19T04:44:35.880Z,99481.91
2023-03-19T04:47:02.093Z,99463.97
2023-03-19T04:49:28.314Z,99455.16
2023-03-19T04:51:54.523Z,99438.59
2023-03-19T04:54:20.734Z,99442.19
2023-03-19T04:56:46.978Z,99417.06
2023-03-19T04:59:13.176Z,99407.72
2023-03-19T05:01:39.473Z,99409.22
2023-03-19T05:04:05.721Z,99437.75
2023-03-19T05:06:31.985Z,99447.00
2023-03-19T05:08:58.197Z,99468.53
2023-03-19T05:11:24.399Z,99473.41
2023-03-19T05:13:50.614Z,99490.03
2023-03-19T05:16:16.865Z,99503.00
2023-03-19T05:18:43.111Z,99543.19
2023-03-19T05:21:12.397Z,99573.53
2023-03-19T05:23:38.834Z,99594.81
2023-03-19T05:26:05.172Z,99625.94
2023-03-19T05:28:31.403Z,99660.22
2023-03-19T05:30:57.626Z,99682.97
2023-03-19T05:33:23.857Z,99704.50
2023-03-19T05:35:50.126Z,99719.88
2023-03-19T05:38:16.474Z,99722.34
2023-03-19T05:40:42.685Z,99745.97
2023-03-19T05:43:09.236Z,99755.53
2023-03-19T05:45:35.442Z,99763.00
2023-03-19T05:48:02.077Z,99774.41
2023-03-19T05:50:28.270Z,99787.59
2023-03-19T05:52:54.478Z,99804.16
2023-03-19T05:55:20.684Z,99804.16
2023-03-19T05:57:46.890Z,99818.84
2023-03-19T06:00:13.441Z,99822.75
2023-03-19T06:02:39.688Z,99838.66
2023-03-19T06:05:06.112Z,99858.03
2023-03-19T06:07:32.330Z,99865.16
2023-03-19T06:09:58.551Z,99881.59
2023-03-19T06:12:24.819Z,99895.66
2023-03-19T06:14:51.037Z,99909.75
2023-03-19T06:17:17.254Z,99912.34
2023-03-19T06:19:43.448Z,99912.81
2023-03-19T06:22:09.681Z,99924.91
2023-03-19T06:24:35.877Z,99928.88
2023-03-19T06:27:02.204Z,99932.09
2023-03-19T06:29:28.405Z,99913.41
2023-03-19T06:31:57.503Z,99893.28
2023-03-19T06:34:24.223Z,99873.16
2023-03-19T06:36:50.436Z,99854.13
2023-03-19T06:39:16.645Z,99847.47
2023-03-19T06:41:42.852Z,99862.41
2023-03-19T06:44:09.076Z,99864.63
2023-03-19T06:46:35.270Z,99862.34
2023-03-19T06:49:01.483Z,99855.16
2023-03-19T06:51:27.694Z,99866.91
2023-03-19T06:53:54.032Z,99887.72
2023-03-19T06:56:20.245Z,99881.59
2023-03-19T06:58:46.473Z,99887.47
2023-03-19T07:01:12.737Z,99916.69
2023-03-19T07:03:38.986Z,99935.59
2023-03-19T07:06:05.284Z,99982.97
2023-03-19T07:08:31.488Z,100013.53
2023-03-19T07:10:57.701Z,100010.59
2023-03-19T07:13:23.922Z,100000.78
2023-03-19T07:15:50.158Z,99972.66
2023-03-19T07:18:16.358Z,99971.97
2023-03-19T07:20:42.564Z,99981.31
2023-03-19T07:23:08.776Z,99967.59
2023-03-19T07:25:34.977Z,99941.09
2023-03-19T07:28:01.211Z,99941.94
2023-03-19T07:30:27.406Z,99888.78
2023-03-19T07:32:53.686Z,99861.84
2023-03-19T07:35:19.912Z,99822.47
2023-03-19T07:37:46.113Z,99783.81
2023-03-19T07:40:12.344Z,99738.69
2023-03-19T07:42:38.570Z,99633.75
2023-03-19T07:45:05.089Z,99650.56
2023-03-19T07:47:31.453Z,99622.81
2023-03-19T07:49:57.654Z,99620.97
2023-03-19T07:52:24.269Z,99632.88
2023-03-19T07:54:50.488Z,99698.53
2023-03-19T07:57:16.737Z,99687.78
2023-03-19T07:59:42.990Z,99616.44
2023-03-19T08:02:12.065Z,99564.94
2023-03-19T08:04:38.510Z,99537.66
2023-03-19T08:07:04.706Z,99540.16
2023-03-19T08:09:30.906Z,99554.44
2023-03-19T08:11:57.103Z,99581.13
2023-03-19T08:14:23.313Z,99496.97
2023-03-19T08:16:49.575Z,99439.34
2023-03-19T08:19:15.807Z,99467.84
2023-03-19T08:21:42.106Z,99434.56
2023-03-19T08:24:08.527Z,99516.16
2023-03-19T08:26:34.735Z,99513.22
2023-03-19T08:29:00.971Z,99584.06
2023-03-19T08:31:27.232Z,99654.34
2023-03-19T08:33:53.476Z,99715.56
2023-03-19T08:36:19.675Z,99736.47
2023-03-19T08:38:45.889Z,99819.47
2023-03-19T08:41:12.087Z,99819.72
2023-03-19T08:43:38.299Z,99774.09
2023-03-19T08:46:04.777Z,99784.66
2023-03-19T08:48:31.072Z,99646.03
2023-03-19T08:50:58.256Z,99614.25
2023-03-19T08:53:24.507Z,99606.41
2023-03-19T08:55:51.593Z,99605.63
2023-03-19T08:58:17.819Z,99532.94
2023-03-19T09:00:44.024Z,99564.53
2023-03-19T09:03:10.314Z,99498.00
2023-03-19T09:05:36.508Z,99464.00
2023-03-19T09:08:02.714Z,99478.94
2023-03-19T09:10:28.906Z,99514.88
2023-03-19T09:12:55.116Z,99532.50
2023-03-19T09:15:21.335Z,99520.59
2023-03-19T09:17:47.541Z,99518.09
2023-03-19T09:20:13.759Z,99446.31
2023-03-19T09:22:39.957Z,99404.31
2023-03-19T09:25:06.481Z,99474.50
2023-03-19T09:27:32.696Z,99531.66
2023-03-19T09:29:58.911Z,99566.06
2023-03-19T09:32:25.107Z,99557.84
2023-03-19T09:34:51.317Z,99634.97
2023-03-19T09:37:17.547Z,99628.88
2023-03-19T09:39:43.762Z,99539.59
2023-03-19T09:42:14.831Z,99513.97
2023-03-19T09:44:41.166Z,99520.97
2023-03-19T09:47:26.319Z,99522.00
2023-03-19T09:49:55.938Z,99540.84
2023-03-19T09:52:28.913Z,99507.78
2023-03-19T09:54:56.228Z,99445.53
2023-03-19T09:57:22.444Z,99395.78
2023-03-19T09:59:48.660Z,99415.56
2023-03-19T10:02:33.634Z,99298.69
2023-03-19T10:05:08.952Z,99392.28
2023-03-19T10:07:41.414Z,99446.72
2023-03-19T10:10:16.825Z,99431.91
2023-03-19T10:12:45.615Z,99493.09
2023-03-19T10:15:15.373Z,99375.91
2023-03-19T10:17:48.073Z,99344.75
2023-03-19T10:20:21.341Z,99330.84
2023-03-19T10:22:48.885Z,99348.25
2023-03-19T10:25:22.324Z,99318.97
2023-03-19T10:27:50.756Z,99348.56
2023-03-19T10:30:17.199Z,99309.84
2023-03-19T10:32:44.098Z,99283.09
2023-03-19T10:35:20.274Z,99256.84
2023-03-19T10:37:47.212Z,99209.84
2023-03-19T10:40:42.678Z,99336.28
2023-03-19T10:43:12.275Z,99173.31
2023-03-19T10:45:50.458Z,99262.13
2023-03-19T10:48:16.950Z,99271.94
2023-03-19T10:50:50.323Z,99355.75
2023-03-19T10:53:16.485Z,99262.69
2023-03-19T10:56:15.054Z,99268.53
2023-03-19T10:58:41.268Z,99119.75
2023-03-19T11:01:08.601Z,98889.19
2023-03-19T11:03:34.858Z,99014.19
2023-03-19T11:06:04.811Z,99005.34
2023-03-19T11:08:35.735Z,99090.44
2023-03-19T11:11:02.428Z,99121.16
2023-03-19T11:13:28.629Z,99066.84
2023-03-19T11:15:55.228Z,98965.63
2023-03-19T11:18:22.373Z,99043.91
2023-03-19T11:20:49.516Z,98970.56
2023-03-19T11:23:16.034Z,99112.56
2023-03-19T11:25:46.261Z,99067.91
2023-03-19T11:28:13.166Z,99079.16
2023-03-19T11:30:41.640Z,99199.22
2023-03-19T11:33:13.932Z,99008.56
2023-03-19T11:35:41.915Z,98996.19
2023-03-19T11:38:11.714Z,98979.06
2023-03-19T11:40:37.892Z,99032.03
2023-03-19T11:43:19.095Z,99093.66
2023-03-19T11:45:49.348Z,99294.63
2023-03-19T11:48:22.059Z,99222.72
2023-03-19T11:50:51.279Z,99083.09
2023-03-19T11:53:22.679Z,99189.09
2023-03-19T11:56:07.638Z,99177.16
2023-03-19T11:58:38.461Z,99328.09
2023-03-19T12:01:10.981Z,99403.50
2023-03-19T12:03:40.922Z,99265.34
2023-03-19T12:06:10.246Z,99237.66
2023-03-19T12:08:42.157Z,99167.88
2023-03-19T12:11:23.524Z,99097.16
2023-03-19T12:14:04.938Z,98980.06
2023-03-19T12:16:45.927Z,99006.34
2023-03-19T12:19:32.464Z,99078.00
2023-03-19T12:22:18.528Z,99016.09
2023-03-19T12:24:53.761Z,99191.88
2023-03-19T12:27:29.341Z,99267.84
2023-03-19T12:30:07.937Z,99283.22
2023-03-19T12:32:34.163Z,99394.31
2023-03-19T12:35:20.612Z,99472.09
2023-03-19T12:37:51.212Z,99542.53
2023-03-19T12:40:17.496Z,99434.34
2023-03-19T12:42:43.764Z,99276.63
2023-03-19T12:45:24.442Z,99011.16
2023-03-19T12:47:53.304Z,99219.28
2023-03-19T12:50:19.583Z,99266.75
2023-03-19T12:52:51.876Z,99370.25
2023-03-19T12:55:21.794Z,99280.41
2023-03-19T12:57:47.996Z,99268.88
2023-03-19T13:00:17.573Z,99241.91
2023-03-19T13:03:02.324Z,99245.38
2023-03-19T13:05:31.589Z,99181.28
2023-03-19T13:07:59.544Z,99079.16
2023-03-19T13:10:25.756Z,99166.28
2023-03-19T13:12:51.966Z,99128.28
2023-03-19T13:15:47.710Z,99229.53
2023-03-19T13:18:32.592Z,99330.41
2023-03-19T13:21:17.367Z,99361.47
2023-03-19T13:23:43.592Z,99225.28
2023-03-19T13:26:10.332Z,99173.88
2023-03-19T13:28:37.078Z,99083.47
2023-03-19T13:31:03.332Z,99025.50
2023-03-19T13:33:29.615Z,98924.97
2023-03-19T13:35:55.918Z,98883.97
2023-03-19T13:38:24.720Z,98916.25
2023-03-19T13:40:54.585Z,98777.09
2023-03-19T13:43:29.908Z,98902.59
2023-03-19T13:46:11.383Z,99082.31
2023-03-19T13:48:46.631Z,99089.88
2023-03-19T13:51:12.791Z,99025.31
2023-03-19T13:53:39.101Z,99024.00
2023-03-19T13:56:15.899Z,99094.28
2023-03-19T13:58:52.991Z,99156.72
2023-03-19T14:01:25.021Z,99240.91
2023-03-19T14:03:55.027Z,99214.44
2023-03-19T14:06:34.545Z,99207.31
2023-03-19T14:09:00.790Z,99175.25
2023-03-19T14:11:31.171Z,99101.50
2023-03-19T14:13:57.375Z,99130.91
2023-03-19T14:16:29.738Z,99166.63
2023-03-19T14:18:56.328Z,99050.63
2023-03-19T14:21:32.887Z,99044.69
2023-03-19T14:24:53.262Z,98880.91
2023-03-19T14:27:18.544Z,98782.81
2023-03-19T14:29:44.856Z,98702.34
2023-03-19T14:32:15.961Z,98488.44
2023-03-19T14:34:42.494Z,98135.41
2023-03-19T14:37:23.632Z,98323.72
2023-03-19T14:39:54.098Z,98405.44
2023-03-19T14:42:22.367Z,98543.91
2023-03-19T14:45:07.693Z,98621.19
2023-03-19T14:47:38.984Z,98787.09
2023-03-19T14:50:24.049Z,98717.94
2023-03-19T14:53:01.044Z,98829.94
2023-03-19T14:55:34.081Z,98889.00
2023-03-19T14:58:00.735Z,98940.69
2023-03-19T15:00:26.955Z,99038.75
2023-03-19T15:02:53.156Z,99164.78
2023-03-19T15:05:24.242Z,99194.44
2023-03-19T15:07:50.552Z,99229.88
2023-03-19T15:10:20.613Z,99299.72
2023-03-19T15:13:02.137Z,99300.06
2023-03-19T15:15:40.246Z,99319.66
2023-03-19T15:18:12.555Z,99351.59
2023-03-19T15:20:45.704Z,99350.84
2023-03-19T15:23:25.818Z,99457.34
2023-03-19T15:25:54.199Z,99490.19
2023-03-19T15:28:20.408Z,99358.78
2023-03-19T15:31:03.011Z,99323.25
2023-03-19T15:33:40.044Z,99309.97
2023-03-19T15:36:10.679Z,99283.59
2023-03-19T15:38:41.556Z,99235.28
2023-03-19T15:41:07.798Z,99301.88
2023-03-19T15:43:34.934Z,99399.91
2023-03-19T15:46:01.163Z,99547.97
2023-03-19T15:48:47.688Z,99556.03
2023-03-19T15:51:13.912Z,99705.88
2023-03-19T15:53:40.125Z,99732.47
2023-03-19T15:56:06.586Z,99863.25
2023-03-19T15:58:36.536Z,100093.94
2023-03-19T16:01:03.242Z,100332.34
2023-03-19T16:03:34.211Z,100425.06
2023-03-19T16:06:00.964Z,100468.56
2023-03-19T16:08:27.163Z,100467.69
2023-03-19T16:10:53.369Z,100456.97
2023-03-19T16:13:25.558Z,100464.88
2023-03-19T16:15:55.377Z,100417.38
2023-03-19T16:18:21.563Z,100375.97
2023-03-19T16:21:06.302Z,100360.56
2023-03-19T16:23:33.568Z,100406.78
2023-03-19T16:26:03.997Z,100456.09
2023-03-19T16:28:30.201Z,100543.94
2023-03-19T16:30:56.418Z,100516.91
2023-03-19T16:33:22.683Z,100574.06
2023-03-19T16:35:49.056Z,100613.41
2023-03-19T16:38:22.473Z,100618.84
2023-03-19T16:40:49.135Z,100642.47
2023-03-19T16:43:16.265Z,100607.56
2023-03-19T16:45:42.521Z,100566.66
2023-03-19T16:48:08.807Z,100589.38
2023-03-19T16:50:35.595Z,100633.69
2023-03-19T16:53:02.943Z,100648.91
2023-03-19T16:55:32.945Z,100670.44
2023-03-19T16:58:03.173Z,100620.44
2023-03-19T17:00:31.717Z,100675.53
2023-03-19T17:02:58.225Z,100620.72
2023-03-19T17:05:24.654Z,100634.41
2023-03-19T17:07:50.881Z,100575.13
2023-03-19T17:10:17.867Z,100525.03
2023-03-19T17:12:45.283Z,100561.69
2023-03-19T17:15:32.030Z,100616.16
2023-03-19T17:17:58.521Z,100701.78
2023-03-19T17:20:27.913Z,100714.91
2023-03-19T17:22:54.150Z,100735.16
2023-03-19T17:25:20.499Z,100760.19
2023-03-19T17:27:46.962Z,100739.22
2023-03-19T17:30:13.191Z,100695.03
2023-03-19T17:32:39.894Z,100653.06
2023-03-19T17:35:19.446Z,100619.69
2023-03-19T17:37:45.688Z,100581.25
2023-03-19T17:40:14.888Z,100526.81
2023-03-19T17:42:41.111Z,100482.38
2023-03-19T17:45:07.667Z,100449.03
2023-03-19T17:47:33.891Z,100429.53
2023-03-19T17:50:00.229Z,100398.22
2023-03-19T17:52:26.448Z,100398.31
2023-03-19T17:54:52.647Z,100397.59
2023-03-19T17:57:18.846Z,100402.31
2023-03-19T17:59:45.060Z,100390.84
2023-03-19T18:02:17.539Z,100374.09
2023-03-19T18:04:43.768Z,100362.84
2023-03-19T18:07:09.974Z,100351.31
2023-03-19T18:09:36.188Z,100350.25
2023-03-19T18:12:02.405Z,100345.19
2023-03-19T18:14:28.614Z,100361.22
2023-03-19T18:16:54.823Z,100364.41
2023-03-19T18:19:23.065Z,100334.97
2023-03-19T18:21:49.266Z,100347.00
2023-03-19T18:24:15.500Z,100357.97
2023-03-19T18:26:41.711Z,100347.00
2023-03-19T18:29:07.926Z,100357.53
2023-03-19T18:31:34.179Z,100344.50
2023-03-19T18:34:00.854Z,100333.50
2023-03-19T18:36:27.855Z,100323.84
2023-03-19T18:38:54.344Z,100293.94
2023-03-19T18:41:20.805Z,100318.22
2023-03-19T18:43:47.018Z,100336.25
2023-03-19T18:46:13.839Z,100332.56
2023-03-19T18:48:40.055Z,100340.19
2023-03-19T18:51:06.340Z,100340.25
2023-03-19T18:53:32.560Z,100325.81
2023-03-19T18:55:58.794Z,100325.03
2023-03-19T18:58:25.462Z,100328.41
2023-03-19T19:00:51.731Z,100323.19
2023-03-19T19:03:18.640Z,100319.00
2023-03-19T19:05:44.869Z,100316.41
2023-03-19T19:08:15.209Z,100304.63
2023-03-19T19:10:42.053Z,100305.41
2023-03-19T19:13:10.881Z,100296.53
2023-03-19T19:15:37.074Z,100293.38
2023-03-19T19:18:07.865Z,100286.81
2023-03-19T19:20:34.317Z,100310.84
2023-03-19T19:23:00.694Z,100318.69
2023-03-19T19:25:27.478Z,100315.81
2023-03-19T19:28:00.900Z,100322.34
2023-03-19T19:30:27.187Z,100332.00
2023-03-19T19:32:53.399Z,100329.34
2023-03-19T19:35:22.744Z,100336.78
2023-03-19T19:37:49.164Z,100370.50
2023-03-19T19:40:16.280Z,100368.69
2023-03-19T19:42:42.567Z,100367.91
2023-03-19T19:45:14.060Z,100365.81
2023-03-19T19:47:40.277Z,100372.63
2023-03-19T19:50:06.564Z,100371.28
2023-03-19T19:52:32.770Z,100365.28
2023-03-19T19:54:58.995Z,100363.97
2023-03-19T19:57:25.252Z,100363.75
2023-03-19T19:59:51.612Z,100367.66
2023-03-19T20:02:21.490Z,100356.69
2023-03-19T20:04:47.702Z,100352.75
2023-03-19T20:07:13.894Z,100345.22
2023-03-19T20:09:40.108Z,100344.66
2023-03-19T20:12:13.186Z,100350.97
2023-03-19T20:14:39.404Z,100345.78
2023-03-19T20:17:05.638Z,100339.50
2023-03-19T20:19:31.860Z,100339.75
2023-03-19T20:21:58.067Z,100327.66
2023-03-19T20:24:24.269Z,100322.34
2023-03-19T20:26:50.467Z,100341.19
2023-03-19T20:29:16.755Z,100346.66
2023-03-19T20:31:43.029Z,100355.03
2023-03-19T20:34:12.709Z,100342.13
2023-03-19T20:36:38.916Z,100364.63
2023-03-19T20:39:05.134Z,100369.31
2023-03-19T20:41:31.332Z,100374.53
2023-03-19T20:43:57.558Z,100367.94
2023-03-19T20:46:23.815Z,100379.47
2023-03-19T20:48:50.051Z,100382.06
2023-03-19T20:51:17.451Z,100370.72
2023-03-19T20:53:43.668Z,100358.28
2023-03-19T20:56:13.718Z,100335.66
2023-03-19T20:58:39.920Z,100318.28
2023-03-19T21:01:06.141Z,100273.25
2023-03-19T21:03:32.336Z,100224.25
2023-03-19T21:05:59.311Z,100188.81
2023-03-19T21:08:33.128Z,100142.66
2023-03-19T21:10:59.353Z,100100.66
2023-03-19T21:13:25.584Z,100066.94
2023-03-19T21:15:51.890Z,100006.88
2023-03-19T21:18:18.136Z,99941.44
2023-03-19T21:20:44.896Z,99880.44
2023-03-19T21:23:14.058Z,99838.16
2023-03-19T21:25:40.270Z,99796.72
2023-03-19T21:28:06.966Z,99765.16
2023-03-19T21:30:34.032Z,99739.59
2023-03-19T21:33:00.298Z,99724.44
2023-03-19T21:35:26.545Z,99687.69
2023-03-19T21:37:53.032Z,99671.53
2023-03-19T21:40:20.064Z,99638.16
2023-03-19T21:42:47.709Z,99584.72
2023-03-19T21:45:14.758Z,99496.69
2023-03-19T21:47:40.958Z,99411.47
2023-03-19T21:50:09.509Z,99309.66
2023-03-19T21:52:49.923Z,99202.56
2023-03-19T21:55:21.914Z,99088.81
2023-03-19T21:57:48.118Z,98997.69
2023-03-19T22:00:15.458Z,98888.50
2023-03-19T22:02:44.260Z,98807.47
2023-03-19T22:05:20.650Z,98735.16
2023-03-19T22:07:46.856Z,98665.03
2023-03-19T22:10:13.094Z,98648.22
2023-03-19T22:12:39.471Z,98617.75
2023-03-19T22:15:05.959Z,98567.72
2023-03-19T22:17:32.158Z,98508.59
2023-03-19T22:19:58.381Z,98476.38
2023-03-19T22:22:24.636Z,98449.03
2023-03-19T22:24:51.084Z,98437.75
2023-03-19T22:27:17.300Z,98432.91
2023-03-19T22:29:44.235Z,98398.78
2023-03-19T22:32:16.855Z,98392.22
2023-03-19T22:34:43.381Z,98395.19
2023-03-19T22:37:23.611Z,98371.97
2023-03-19T22:39:49.812Z,98356.44
2023-03-19T22:42:16.031Z,98352.13
2023-03-19T22:44:42.226Z,98307.22
2023-03-19T22:47:08.703Z,98279.94
2023-03-19T22:49:34.899Z,98252.28
2023-03-19T22:52:01.112Z,98249.19
2023-03-19T22:54:27.322Z,98274.63
2023-03-19T22:56:53.564Z,98261.84
2023-03-19T22:59:19.772Z,98232.63
2023-03-19T23:01:46.278Z,98263.94
2023-03-19T23:04:22.650Z,98325.72
2023-03-19T23:06:49.014Z,98387.06
2023-03-19T23:09:16.264Z,98402.66
2023-03-19T23:11:42.483Z,98409.66
2023-03-19T23:14:22.115Z,98445.31
2023-03-19T23:16:54.565Z,98467.78
2023-03-19T23:19:21.898Z,98488.91
2023-03-19T23:21:48.127Z,98583.69
2023-03-19T23:24:14.752Z,98587.03
2023-03-19T23:26:44.466Z,98657.81
2023-03-19T23:29:15.252Z,98721.53
2023-03-19T23:31:41.459Z,98804.78
2023-03-19T23:34:09.620Z,98912.84
2023-03-19T23:36:35.842Z,99005.81
2023-03-19T23:39:02.058Z,99095.56
2023-03-19T23:41:28.343Z,99190.38
2023-03-19T23:43:54.536Z,99285.38
2023-03-19T23:46:20.872Z,99376.31
2023-03-19T23:48:47.125Z,99474.28
2023-03-19T23:51:13.748Z,99518.53
2023-03-19T23:53:39.998Z,99566.69
2023-03-19T23:56:09.814Z,99624.28
2023-03-19T23:58:37.478Z,99677.09
